Time;durP1;ratioP1;P1;durP2;ratioP2;P2;SDS_P1;SDS_P2;PMS_P1;PMS_P2;Temp;Humidity;BMP_temperature;BMP_pressure;BME280_temperature;BME280_humidity;BME280_pressure;Samples;Min_cycle;Max_cycle;Signal;HPM_P1;HPM_P2
2022/03/12 00:00:43;;;;;;;10.07;6.90;;;-14.40;99.90;;;;;;4362352;32;20077;-63
2022/03/12 00:03:10;;;;;;;12.50;6.95;;;-14.30;99.90;;;;;;4362705;32;20111;-62
2022/03/12 00:05:38;;;;;;;10.52;7.15;;;-14.50;99.90;;;;;;4362207;32;20109;-62
2022/03/12 00:08:05;;;;;;;14.98;7.68;;;-14.50;99.90;;;;;;4337515;32;20158;-62
2022/03/12 00:10:32;;;;;;;13.60;7.87;;;-14.50;99.90;;;;;;4361937;32;20084;-61
2022/03/12 00:13:00;;;;;;;12.30;7.53;;;-14.60;99.90;;;;;;4375948;32;20070;-62
2022/03/12 00:15:29;;;;;;;11.80;7.43;;;-14.70;99.90;;;;;;4361960;32;20085;-63
2022/03/12 00:17:55;;;;;;;13.73;9.10;;;-14.60;99.90;;;;;;4375891;32;20082;-62
2022/03/12 00:20:22;;;;;;;13.68;8.07;;;-14.70;99.90;;;;;;4375590;32;20069;-62
2022/03/12 00:22:51;;;;;;;17.33;10.45;;;-14.80;99.90;;;;;;4362052;32;20101;-62
2022/03/12 00:25:22;;;;;;;15.30;9.95;;;-14.70;99.90;;;;;;4362115;32;20597;-62
2022/03/12 00:27:51;;;;;;;14.07;9.35;;;-14.80;99.90;;;;;;4362645;32;20508;-63
2022/03/12 00:30:24;;;;;;;15.02;9.30;;;-14.70;99.90;;;;;;4337335;32;20098;-61
2022/03/12 00:32:53;;;;;;;14.82;9.75;;;-14.90;99.90;;;;;;4349741;32;20598;-61
2022/03/12 00:35:20;;;;;;;16.10;9.65;;;-14.80;99.90;;;;;;4362301;32;20097;-62
2022/03/12 00:37:47;;;;;;;16.45;10.15;;;-14.90;99.90;;;;;;4349650;32;20162;-63
2022/03/12 00:40:15;;;;;;;14.85;9.32;;;-14.90;99.90;;;;;;4362502;32;20075;-61
2022/03/12 00:42:43;;;;;;;15.63;9.20;;;-14.90;99.90;;;;;;4362264;32;20085;-62
2022/03/12 00:45:10;;;;;;;13.88;8.70;;;-14.90;99.90;;;;;;4349539;32;20073;-61
2022/03/12 00:47:36;;;;;;;13.68;9.23;;;-15.00;99.90;;;;;;4364422;32;20169;-63
2022/03/12 00:50:04;;;;;;;12.75;7.68;;;-15.10;99.90;;;;;;4364589;32;20082;-63
2022/03/12 00:52:31;;;;;;;13.32;7.53;;;-15.20;99.90;;;;;;4378673;32;20178;-61
2022/03/12 00:54:57;;;;;;;11.50;7.22;;;-15.20;99.90;;;;;;4352611;32;20173;-62
2022/03/12 00:57:24;;;;;;;11.55;7.75;;;-15.20;99.90;;;;;;4378758;32;20493;-62
2022/03/12 00:59:50;;;;;;;10.95;6.65;;;-15.20;99.90;;;;;;4378149;32;20101;-61
2022/03/12 01:02:18;;;;;;;9.82;6.32;;;-15.30;99.90;;;;;;4340374;32;20161;-62
2022/03/12 01:04:44;;;;;;;11.05;7.05;;;-15.30;99.90;;;;;;4365302;32;20132;-62
2022/03/12 01:07:12;;;;;;;11.88;6.68;;;-15.30;99.90;;;;;;4364573;32;20185;-62
2022/03/12 01:09:40;;;;;;;12.32;8.65;;;-15.30;99.90;;;;;;4340056;32;20163;-62
2022/03/12 01:12:09;;;;;;;11.38;6.93;;;-15.20;99.90;;;;;;4352237;32;20086;-61
2022/03/12 01:14:38;;;;;;;11.50;6.85;;;-15.20;99.90;;;;;;4378274;32;20154;-62
2022/03/12 01:17:07;;;;;;;10.85;6.57;;;-15.40;99.90;;;;;;4378586;32;20170;-62
2022/03/12 01:19:34;;;;;;;10.57;7.30;;;-15.40;99.90;;;;;;4352062;32;20086;-62
2022/03/12 01:22:07;;;;;;;10.18;6.43;;;-15.40;99.90;;;;;;4378278;32;20103;-62
2022/03/12 01:24:35;;;;;;;11.57;6.97;;;-15.40;99.90;;;;;;4378452;32;20082;-63
2022/03/12 01:27:01;;;;;;;11.18;5.90;;;-15.40;99.90;;;;;;4378205;32;20116;-61
2022/03/12 01:29:28;;;;;;;10.43;6.43;;;-15.50;99.90;;;;;;4377920;32;20074;-62
2022/03/12 01:31:54;;;;;;;13.25;6.32;;;-15.40;99.90;;;;;;4378051;32;20077;-63
2022/03/12 01:34:21;;;;;;;9.70;6.37;;;-15.40;99.90;;;;;;4378100;32;20488;-62
2022/03/12 01:36:47;;;;;;;10.00;6.47;;;-15.50;99.90;;;;;;4377712;32;20066;-61
2022/03/12 01:39:13;;;;;;;11.00;6.28;;;-15.50;99.90;;;;;;4377897;32;20073;-61
2022/03/12 01:41:42;;;;;;;9.82;6.57;;;-15.60;99.90;;;;;;4364389;32;20066;-63
2022/03/12 01:44:10;;;;;;;9.23;6.07;;;-15.60;99.90;;;;;;4363809;32;20078;-62
2022/03/12 01:46:48;;;;;;;11.75;6.47;;;-15.70;99.90;;;;;;4351521;32;20102;-61
2022/03/12 01:49:24;;;;;;;11.55;6.32;;;-15.70;99.90;;;;;;4363714;32;20543;-62
2022/03/12 01:51:53;;;;;;;9.10;5.45;;;-15.70;99.90;;;;;;4364565;32;20100;-62
2022/03/12 01:54:24;;;;;;;10.75;6.80;;;-15.40;99.90;;;;;;4363849;32;20259;-62
2022/03/12 01:56:53;;;;;;;14.80;8.32;;;-15.60;99.90;;;;;;4351255;32;20452;-62
2022/03/12 01:59:21;;;;;;;13.55;7.87;;;-15.60;99.90;;;;;;4363594;32;20525;-61
2022/03/12 02:01:51;;;;;;;10.90;7.22;;;-15.80;99.90;;;;;;4377957;32;20074;-62
2022/03/12 02:04:20;;;;;;;9.07;6.60;;;-15.70;99.90;;;;;;4351634;32;20507;-62
2022/03/12 02:06:47;;;;;;;9.13;6.55;;;-15.70;99.90;;;;;;4351122;32;20086;-62
2022/03/12 02:09:15;;;;;;;10.38;7.35;;;-15.50;99.90;;;;;;4351582;32;20154;-62
2022/03/12 02:11:50;;;;;;;12.25;7.82;;;-15.70;99.90;;;;;;4377316;32;20167;-62
2022/03/12 02:14:23;;;;;;;11.45;7.60;;;-15.80;99.90;;;;;;4364802;32;20106;-63
2022/03/12 02:17:00;;;;;;;12.85;8.70;;;-15.70;99.90;;;;;;4363653;32;20097;-61
2022/03/12 02:19:30;;;;;;;19.60;10.90;;;-15.70;99.90;;;;;;4377023;32;20094;-61
2022/03/12 02:22:08;;;;;;;18.45;10.35;;;-15.90;99.90;;;;;;4364105;32;20106;-62
2022/03/12 02:24:37;;;;;;;16.60;9.80;;;-15.90;99.90;;;;;;4363894;32;20153;-62
2022/03/12 02:27:06;;;;;;;14.20;9.77;;;-15.80;99.90;;;;;;4363294;32;20078;-62
2022/03/12 02:29:33;;;;;;;13.30;8.73;;;-15.80;99.90;;;;;;4363420;32;20070;-62
2022/03/12 02:32:03;;;;;;;14.87;10.00;;;-15.90;99.90;;;;;;4363363;32;20145;-62
2022/03/12 02:34:42;;;;;;;18.73;11.35;;;-15.90;99.90;;;;;;4351190;32;20085;-62
2022/03/12 02:37:09;;;;;;;16.37;11.02;;;-15.90;99.90;;;;;;4352065;32;20082;-62
2022/03/12 02:39:38;;;;;;;14.02;9.52;;;-16.00;99.90;;;;;;4363060;32;20081;-62
2022/03/12 02:42:11;;;;;;;18.35;11.88;;;-15.80;99.90;;;;;;4363240;32;20082;-62
2022/03/12 02:44:37;;;;;;;15.50;9.35;;;-15.90;99.90;;;;;;4364449;32;20093;-61
2022/03/12 02:47:27;;;;;;;17.15;10.40;;;-15.90;99.90;;;;;;4377176;32;20077;-61
2022/03/12 02:50:09;;;;;;;16.92;10.30;;;-15.90;99.90;;;;;;4351062;32;20084;-61
2022/03/12 02:52:41;;;;;;;14.25;9.63;;;-15.90;99.90;;;;;;4350695;32;20066;-62
2022/03/12 02:55:14;;;;;;;15.07;9.90;;;-15.80;99.90;;;;;;4351067;32;20448;-61
2022/03/12 02:57:43;;;;;;;18.40;11.18;;;-15.90;99.90;;;;;;4351132;32;20165;-61
2022/03/12 03:00:11;;;;;;;13.85;9.07;;;-16.00;99.90;;;;;;4350517;32;20163;-62
2022/03/12 03:02:39;;;;;;;19.62;10.52;;;-15.90;99.90;;;;;;4351625;32;20086;-64
2022/03/12 03:05:21;;;;;;;19.10;10.25;;;-15.90;99.90;;;;;;4364359;32;20085;-62
2022/03/12 03:07:55;;;;;;;16.12;10.15;;;-15.90;99.90;;;;;;4380394;32;20554;-61
2022/03/12 03:10:35;;;;;;;13.20;8.75;;;-16.00;99.90;;;;;;4364252;32;20088;-61
2022/03/12 03:13:36;;;;;;;14.55;9.27;;;-15.90;99.90;;;;;;4377520;32;20078;-62
2022/03/12 03:16:21;;;;;;;13.55;9.60;;;-16.10;99.90;;;;;;4325119;32;20542;-61
2022/03/12 03:18:53;;;;;;;15.60;10.30;;;-15.90;99.90;;;;;;4364637;32;20146;-62
2022/03/12 03:21:25;;;;;;;13.02;9.27;;;-16.00;99.90;;;;;;4365122;32;20082;-63
2022/03/12 03:23:53;;;;;;;14.05;9.52;;;-15.90;99.90;;;;;;4368240;32;20121;-63
2022/03/12 03:26:38;;;;;;;14.68;8.80;;;-15.80;99.90;;;;;;4369685;32;20466;-61
2022/03/12 03:29:08;;;;;;;14.35;8.82;;;-15.90;99.90;;;;;;4351489;32;20153;-62
2022/03/12 03:31:35;;;;;;;16.23;9.15;;;-15.90;99.90;;;;;;4376712;32;20150;-62
2022/03/12 03:34:01;;;;;;;15.93;9.50;;;-16.00;99.90;;;;;;4350525;32;20066;-61
2022/03/12 03:36:28;;;;;;;15.55;8.70;;;-15.90;99.90;;;;;;4362394;32;20077;-62
2022/03/12 03:38:55;;;;;;;15.95;9.65;;;-16.00;99.90;;;;;;4350144;32;20074;-62
2022/03/12 03:41:21;;;;;;;15.32;9.38;;;-15.80;99.90;;;;;;4362872;32;20588;-62
2022/03/12 03:43:49;;;;;;;14.38;9.35;;;-15.90;99.90;;;;;;4376213;32;20154;-61
2022/03/12 03:46:21;;;;;;;17.80;9.75;;;-15.70;99.90;;;;;;4362461;32;20069;-62
2022/03/12 03:48:51;;;;;;;19.33;9.23;;;-15.60;99.90;;;;;;4363030;32;20082;-63
2022/03/12 03:51:19;;;;;;;15.07;8.32;;;-15.70;99.90;;;;;;4349767;32;20473;-62
2022/03/12 03:53:45;;;;;;;13.07;8.27;;;-15.60;99.90;;;;;;4350058;32;20102;-61
2022/03/12 03:56:12;;;;;;;13.32;8.18;;;-15.70;99.90;;;;;;4362227;32;20069;-62
2022/03/12 03:58:39;;;;;;;14.38;8.55;;;-15.30;99.90;;;;;;4376095;32;20159;-62
2022/03/12 04:01:12;;;;;;;14.43;9.07;;;-15.50;99.90;;;;;;4362786;32;20139;-62
2022/03/12 04:03:48;;;;;;;14.40;8.73;;;-15.80;99.90;;;;;;4363680;32;20090;-62
2022/03/12 04:06:16;;;;;;;15.47;9.37;;;-15.70;99.90;;;;;;4376260;32;20094;-62
2022/03/12 04:08:44;;;;;;;14.00;9.20;;;-15.70;99.90;;;;;;4363010;32;20078;-61
2022/03/12 04:11:25;;;;;;;11.40;7.97;;;-15.70;99.90;;;;;;4350275;32;20174;-62
2022/03/12 04:13:53;;;;;;;12.30;8.30;;;-15.70;99.90;;;;;;4362415;32;20482;-62
2022/03/12 04:16:21;;;;;;;16.48;8.70;;;-15.70;99.90;;;;;;4361950;32;20129;-63
2022/03/12 04:18:49;;;;;;;13.15;8.23;;;-15.80;99.90;;;;;;4349657;32;20082;-62
2022/03/12 04:21:17;;;;;;;13.35;7.85;;;-15.80;99.90;;;;;;4377727;32;20086;-61
2022/03/12 04:23:46;;;;;;;13.00;8.32;;;-15.70;99.90;;;;;;4365437;32;20077;-61
2022/03/12 04:26:13;;;;;;;15.18;7.97;;;-15.60;99.90;;;;;;4353427;32;20086;-61
2022/03/12 04:28:40;;;;;;;15.52;8.23;;;-15.40;99.90;;;;;;4365014;32;20082;-62
2022/03/12 04:31:08;;;;;;;12.73;8.55;;;-15.40;99.90;;;;;;4352644;32;20093;-62
2022/03/12 04:33:38;;;;;;;11.73;8.40;;;-15.20;99.90;;;;;;4365412;32;20169;-62
2022/03/12 04:36:05;;;;;;;13.65;9.02;;;-15.10;99.90;;;;;;4365759;32;20070;-61
2022/03/12 04:38:32;;;;;;;13.13;8.38;;;-15.30;99.90;;;;;;4364700;32;20532;-61
2022/03/12 04:40:58;;;;;;;14.50;9.27;;;-14.90;99.90;;;;;;4364538;32;20601;-62
2022/03/12 04:43:28;;;;;;;15.82;9.30;;;-15.10;99.90;;;;;;4379046;32;20088;-61
2022/03/12 04:45:55;;;;;;;13.02;8.48;;;-15.00;99.90;;;;;;4365919;32;20171;-61
2022/03/12 04:48:23;;;;;;;14.73;8.98;;;-14.80;99.90;;;;;;4365055;32;20453;-61
2022/03/12 04:50:51;;;;;;;15.95;8.85;;;-14.90;99.90;;;;;;4340400;32;20078;-61
2022/03/12 04:53:18;;;;;;;14.85;8.77;;;-14.80;99.90;;;;;;4365155;32;20444;-62
2022/03/12 04:55:45;;;;;;;14.45;9.20;;;-14.70;99.90;;;;;;4378311;32;20151;-60
2022/03/12 04:58:13;;;;;;;16.17;9.02;;;-14.60;99.90;;;;;;4364939;32;20065;-62
2022/03/12 05:00:41;;;;;;;14.50;8.93;;;-14.70;99.90;;;;;;4351635;32;20568;-62
2022/03/12 05:03:09;;;;;;;15.93;8.48;;;-14.80;99.90;;;;;;4365020;32;20081;-62
2022/03/12 05:05:40;;;;;;;15.10;9.38;;;-14.50;99.90;;;;;;4378485;32;20059;-62
2022/03/12 05:08:19;;;;;;;13.95;8.85;;;-14.50;99.90;;;;;;4364758;32;20082;-62
2022/03/12 05:10:49;;;;;;;15.18;8.23;;;-14.50;99.90;;;;;;4378864;32;20159;-62
2022/03/12 05:13:22;;;;;;;13.13;7.78;;;-14.60;99.90;;;;;;4340095;32;20167;-61
2022/03/12 05:15:52;;;;;;;13.25;8.20;;;-14.60;99.90;;;;;;4364898;32;20085;-62
2022/03/12 05:18:20;;;;;;;10.77;6.55;;;-14.60;99.90;;;;;;4365120;32;20081;-62
2022/03/12 05:20:47;;;;;;;14.70;8.95;;;-14.20;99.90;;;;;;4364421;32;20085;-64
2022/03/12 05:23:16;;;;;;;11.52;6.53;;;-12.80;99.90;;;;;;4353151;32;20089;-62
2022/03/12 05:25:44;;;;;;;12.20;7.80;;;-12.10;99.90;;;;;;4364869;32;20448;-62
2022/03/12 05:28:17;;;;;;;12.05;5.80;;;-12.10;99.90;;;;;;4364319;32;20414;-62
2022/03/12 05:30:47;;;;;;;10.75;7.20;;;-12.00;99.90;;;;;;4364480;32;20082;-61
2022/03/12 05:33:16;;;;;;;9.38;6.15;;;-11.90;99.90;;;;;;4363875;32;20066;-61
2022/03/12 05:35:46;;;;;;;11.25;6.57;;;-11.60;99.90;;;;;;4364278;32;20171;-63
2022/03/12 05:38:14;;;;;;;10.18;5.90;;;-12.10;99.90;;;;;;4364257;32;20105;-62
2022/03/12 05:40:41;;;;;;;10.00;5.95;;;-11.50;99.90;;;;;;4363995;32;20066;-62
2022/03/12 05:43:14;;;;;;;10.73;5.45;;;-11.40;99.90;;;;;;4377591;32;20098;-62
2022/03/12 05:45:51;;;;;;;9.50;6.05;;;-10.80;99.90;;;;;;4364251;32;20074;-62
2022/03/12 05:48:19;;;;;;;9.65;6.32;;;-11.40;99.90;;;;;;4364508;32;20168;-62
2022/03/12 05:53:28;;;;;;;11.77;7.50;;;-11.20;99.90;;;;;;3857089;37;20493;-62
2022/03/12 05:55:55;;;;;;;12.25;6.72;;;-10.40;99.90;;;;;;4419808;32;20080;-61
2022/03/12 05:58:23;;;;;;;14.07;7.78;;;-10.60;99.90;;;;;;4419623;32;20100;-63
2022/03/12 06:00:54;;;;;;;11.32;6.95;;;-10.60;99.30;;;;;;4418492;32;20073;-62
2022/03/12 06:03:23;;;;;;;12.20;7.68;;;-10.50;99.20;;;;;;4418776;32;20153;-62
2022/03/12 06:05:54;;;;;;;9.93;6.57;;;-11.10;98.70;;;;;;4418744;32;20069;-62
2022/03/12 06:08:23;;;;;;;10.52;7.07;;;-11.10;99.90;;;;;;4405799;32;20158;-61
2022/03/12 06:10:54;;;;;;;11.52;6.68;;;-10.90;99.60;;;;;;4418064;32;20591;-61
2022/03/12 06:13:27;;;;;;;12.05;7.32;;;-10.70;99.70;;;;;;4418028;32;20156;-63
2022/03/12 06:16:02;;;;;;;12.50;6.97;;;-11.00;98.60;;;;;;4406013;32;20085;-62
2022/03/12 06:18:32;;;;;;;10.18;6.85;;;-10.60;98.70;;;;;;4417984;32;20057;-62
2022/03/12 06:21:00;;;;;;;11.05;6.78;;;-11.30;98.80;;;;;;4417571;32;20099;-62
2022/03/12 06:23:27;;;;;;;13.38;6.20;;;-12.10;99.90;;;;;;4418655;32;20073;-62
2022/03/12 06:25:54;;;;;;;11.50;7.35;;;-12.20;99.90;;;;;;4405187;32;20078;-61
2022/03/12 06:31:00;;;;;;;10.67;6.70;;;-12.40;99.90;;;;;;3857479;37;20062;-64
2022/03/12 06:33:28;;;;;;;11.35;7.70;;;-12.50;99.90;;;;;;4418468;32;20164;-61
2022/03/12 06:35:57;;;;;;;12.68;7.47;;;-12.10;99.90;;;;;;4405679;32;20093;-62
2022/03/12 06:38:26;;;;;;;13.77;6.55;;;-12.00;99.90;;;;;;4420338;32;20097;-61
2022/03/12 06:40:56;;;;;;;13.40;7.25;;;-12.10;99.90;;;;;;4418732;32;20077;-61
2022/03/12 06:43:22;;;;;;;11.38;6.90;;;-11.90;99.90;;;;;;4418508;32;20081;-61
2022/03/12 06:45:50;;;;;;;10.45;6.72;;;-12.00;99.90;;;;;;4419874;32;20136;-61
2022/03/12 06:48:17;;;;;;;9.85;6.30;;;-11.80;99.90;;;;;;4418451;32;20079;-62
2022/03/12 06:50:44;;;;;;;12.75;6.82;;;-11.80;99.90;;;;;;4420840;32;20540;-62
2022/03/12 06:53:11;;;;;;;11.68;6.85;;;-11.80;99.90;;;;;;4406300;32;20111;-62
2022/03/12 06:55:38;;;;;;;10.77;7.03;;;-11.50;99.90;;;;;;4420314;32;20080;-62
2022/03/12 06:58:04;;;;;;;11.23;7.07;;;-11.70;99.90;;;;;;4418406;32;20122;-63
2022/03/12 07:00:32;;;;;;;10.15;6.80;;;-11.50;99.90;;;;;;4420048;32;20168;-61
2022/03/12 07:02:58;;;;;;;8.65;5.85;;;-11.50;99.90;;;;;;4403120;32;20170;-62
2022/03/12 07:05:25;;;;;;;10.30;6.82;;;-11.60;99.90;;;;;;4390779;32;20168;-61
2022/03/12 07:07:52;;;;;;;14.30;8.75;;;-11.40;99.90;;;;;;4390930;32;20167;-61
2022/03/12 07:10:19;;;;;;;11.23;7.45;;;-11.30;99.90;;;;;;4402997;32;20157;-63
2022/03/12 07:12:47;;;;;;;11.48;7.47;;;-11.40;99.90;;;;;;4403638;32;20153;-62
2022/03/12 07:15:15;;;;;;;11.75;7.78;;;-11.50;99.90;;;;;;4404385;32;20065;-61
2022/03/12 07:17:42;;;;;;;13.45;6.68;;;-11.50;99.90;;;;;;4403595;32;20560;-61
2022/03/12 07:20:10;;;;;;;13.88;7.65;;;-11.40;99.90;;;;;;4392037;32;20085;-60
2022/03/12 07:22:38;;;;;;;11.27;6.87;;;-11.00;99.90;;;;;;4391318;32;20070;-62
2022/03/12 07:25:08;;;;;;;12.60;7.57;;;-11.10;99.90;;;;;;4394401;32;20093;-61
2022/03/12 07:27:34;;;;;;;11.52;7.18;;;-10.80;99.90;;;;;;4409299;32;20166;-61
2022/03/12 07:30:01;;;;;;;13.38;7.55;;;-10.80;99.90;;;;;;4406765;32;20452;-61
2022/03/12 07:32:30;;;;;;;12.70;7.53;;;-10.80;99.90;;;;;;4404501;32;20508;-61
2022/03/12 07:34:56;;;;;;;12.50;7.05;;;-10.80;99.90;;;;;;4397814;32;20186;-61
2022/03/12 07:37:23;;;;;;;13.20;7.10;;;-10.80;99.90;;;;;;4410712;32;20065;-61
2022/03/12 07:39:50;;;;;;;11.35;6.87;;;-10.60;99.90;;;;;;4408983;32;20085;-61
2022/03/12 07:42:16;;;;;;;13.30;6.60;;;-11.10;99.90;;;;;;4387991;32;20079;-61
2022/03/12 07:44:42;;;;;;;13.90;8.60;;;-11.00;99.90;;;;;;4402767;32;20152;-62
2022/03/12 07:47:09;;;;;;;14.48;7.22;;;-10.90;99.90;;;;;;4403070;32;20074;-61
2022/03/12 07:49:35;;;;;;;11.88;6.47;;;-10.50;99.90;;;;;;4403172;32;20520;-61
2022/03/12 07:52:02;;;;;;;13.52;7.45;;;-10.80;99.90;;;;;;4401835;32;20062;-62
2022/03/12 07:54:29;;;;;;;14.05;7.35;;;-10.80;99.90;;;;;;4400707;32;20070;-62
2022/03/12 07:56:55;;;;;;;11.77;7.32;;;-10.30;99.90;;;;;;4397842;32;20081;-63
2022/03/12 07:59:21;;;;;;;13.35;7.47;;;-10.50;99.90;;;;;;4397574;32;20086;-61
2022/03/12 08:01:48;;;;;;;12.90;8.10;;;-10.50;99.90;;;;;;4394828;32;20070;-62
2022/03/12 08:04:14;;;;;;;13.88;7.68;;;-10.30;99.90;;;;;;4394019;32;20495;-62
2022/03/12 08:06:42;;;;;;;12.70;8.40;;;-10.40;99.90;;;;;;4394394;32;20148;-61
2022/03/12 08:09:09;;;;;;;13.95;7.68;;;-10.40;99.90;;;;;;4380190;32;20153;-62
2022/03/12 08:11:35;;;;;;;11.73;6.68;;;-10.10;99.90;;;;;;4392267;32;20137;-63
2022/03/12 08:14:06;;;;;;;10.90;6.70;;;-10.20;99.90;;;;;;4393887;32;20170;-62
2022/03/12 08:16:35;;;;;;;11.35;6.20;;;-9.80;99.90;;;;;;4392905;32;20069;-62
2022/03/12 08:19:08;;;;;;;11.10;6.97;;;-9.80;99.90;;;;;;4393511;32;20070;-61
2022/03/12 08:21:35;;;;;;;9.88;6.20;;;-10.20;99.90;;;;;;4392547;32;20085;-62
2022/03/12 08:24:03;;;;;;;9.85;5.78;;;-9.80;99.90;;;;;;4393545;32;20174;-62
2022/03/12 08:26:30;;;;;;;11.48;6.60;;;-9.60;99.90;;;;;;4393658;32;20447;-61
2022/03/12 08:28:57;;;;;;;9.02;6.07;;;-10.00;99.90;;;;;;4392180;32;20097;-62
2022/03/12 08:31:23;;;;;;;9.00;5.30;;;-10.00;99.90;;;;;;4392175;32;20101;-62
2022/03/12 08:33:50;;;;;;;8.00;5.28;;;-9.60;99.90;;;;;;4393091;32;20093;-61
2022/03/12 08:36:17;;;;;;;12.55;7.20;;;-9.50;99.90;;;;;;4393422;32;20089;-62
2022/03/12 08:38:44;;;;;;;9.95;6.32;;;-9.60;99.90;;;;;;4393419;32;20096;-62
2022/03/12 08:41:30;;;;;;;12.05;7.35;;;-9.60;99.90;;;;;;4392546;32;20159;-62
2022/03/12 08:43:56;;;;;;;10.82;7.00;;;-9.90;99.90;;;;;;4391944;32;20088;-61
2022/03/12 08:46:23;;;;;;;10.32;6.43;;;-9.40;99.90;;;;;;4392312;32;20069;-61
2022/03/12 08:48:50;;;;;;;14.27;7.55;;;-9.00;99.90;;;;;;4392339;32;20073;-62
2022/03/12 08:51:17;;;;;;;13.35;8.00;;;-8.60;99.90;;;;;;4378950;32;20516;-61
2022/03/12 08:53:43;;;;;;;11.77;7.40;;;-8.90;99.90;;;;;;4390543;32;20075;-62
2022/03/12 08:56:10;;;;;;;10.35;7.20;;;-8.70;99.90;;;;;;4391415;32;20161;-62
2022/03/12 08:58:37;;;;;;;13.00;6.82;;;-8.80;99.90;;;;;;4391550;32;20085;-62
2022/03/12 09:01:06;;;;;;;8.75;6.10;;;-8.90;99.90;;;;;;4393055;32;20143;-62
2022/03/12 09:03:33;;;;;;;11.20;6.30;;;-8.70;99.90;;;;;;4391359;32;20507;-61
2022/03/12 09:05:59;;;;;;;9.63;5.53;;;-8.50;99.50;;;;;;4378955;32;20154;-61
2022/03/12 09:08:26;;;;;;;8.90;5.62;;;-8.50;99.90;;;;;;4391249;32;20081;-62
2022/03/12 09:10:54;;;;;;;11.63;6.20;;;-8.40;99.50;;;;;;4379400;32;20088;-62
2022/03/12 09:13:21;;;;;;;11.27;6.62;;;-8.40;98.60;;;;;;4391596;32;20086;-62
2022/03/12 09:15:47;;;;;;;11.05;6.45;;;-8.10;98.90;;;;;;4391267;32;20082;-61
2022/03/12 09:18:15;;;;;;;9.85;5.78;;;-8.30;98.10;;;;;;4391041;32;20519;-62
2022/03/12 09:20:47;;;;;;;8.95;5.82;;;-8.00;99.90;;;;;;4391173;32;20086;-61
2022/03/12 09:23:19;;;;;;;9.82;5.75;;;-8.30;97.10;;;;;;4393260;32;20119;-62
2022/03/12 09:25:47;;;;;;;8.38;6.28;;;-8.00;98.10;;;;;;4391280;32;20078;-62
2022/03/12 09:28:14;;;;;;;10.70;6.78;;;-8.30;97.50;;;;;;4391685;32;20105;-62
2022/03/12 09:30:41;;;;;;;8.82;6.37;;;-8.60;97.90;;;;;;4380933;32;20153;-61
2022/03/12 09:33:08;;;;;;;9.40;6.05;;;-8.50;97.10;;;;;;4392537;32;20074;-62
2022/03/12 09:35:35;;;;;;;14.25;6.85;;;-8.10;97.90;;;;;;4378333;32;20170;-61
2022/03/12 09:38:03;;;;;;;10.05;6.22;;;-8.30;98.40;;;;;;4391024;32;20081;-62
2022/03/12 09:40:31;;;;;;;10.75;6.40;;;-8.50;96.80;;;;;;4393168;32;20464;-62
2022/03/12 09:42:57;;;;;;;10.55;5.10;;;-8.20;96.70;;;;;;4396684;32;20511;-62
2022/03/12 09:45:25;;;;;;;11.75;6.68;;;-8.20;97.20;;;;;;4381583;32;20090;-62
2022/03/12 09:47:52;;;;;;;11.38;6.35;;;-8.20;97.60;;;;;;4394861;32;20533;-61
2022/03/12 09:50:18;;;;;;;10.00;6.03;;;-7.70;98.30;;;;;;4391322;32;20141;-62
2022/03/12 09:52:45;;;;;;;11.68;6.72;;;-7.50;96.60;;;;;;4391907;32;20070;-61
2022/03/12 09:55:11;;;;;;;12.20;8.15;;;-7.60;96.10;;;;;;4390833;32;20089;-62
2022/03/12 09:57:38;;;;;;;9.60;5.87;;;-7.80;95.40;;;;;;4391626;32;20082;-61
2022/03/12 10:00:06;;;;;;;8.55;5.00;;;-7.70;96.00;;;;;;4390346;32;20138;-62
2022/03/12 10:02:33;;;;;;;6.82;4.03;;;-8.10;95.00;;;;;;4390416;32;20069;-62
2022/03/12 10:04:59;;;;;;;10.38;6.32;;;-7.80;95.60;;;;;;4390844;32;20140;-62
2022/03/12 10:07:26;;;;;;;9.77;5.75;;;-7.90;95.50;;;;;;4391874;32;20100;-62
2022/03/12 10:09:52;;;;;;;9.55;6.10;;;-7.30;96.10;;;;;;4390371;32;20077;-61
2022/03/12 10:12:19;;;;;;;10.40;6.03;;;-7.60;94.70;;;;;;4391821;32;20093;-62
2022/03/12 10:14:48;;;;;;;10.10;5.93;;;-7.60;94.80;;;;;;4390231;32;20093;-62
2022/03/12 10:17:16;;;;;;;12.68;6.43;;;-7.50;95.80;;;;;;4392071;32;20076;-62
2022/03/12 10:19:43;;;;;;;12.40;6.40;;;-7.80;95.30;;;;;;4390972;32;20090;-61
2022/03/12 10:22:10;;;;;;;11.90;6.10;;;-7.80;94.20;;;;;;4390968;32;20070;-63
2022/03/12 10:24:37;;;;;;;10.27;5.65;;;-7.80;95.10;;;;;;4390434;32;20526;-62
2022/03/12 10:27:08;;;;;;;11.23;6.18;;;-7.90;95.50;;;;;;4392468;32;20085;-61
2022/03/12 10:29:35;;;;;;;11.60;6.43;;;-7.50;95.00;;;;;;4391869;32;20172;-62
2022/03/12 10:32:28;;;;;;;10.40;5.78;;;-7.90;95.30;;;;;;4390421;32;20063;-61
2022/03/12 10:34:59;;;;;;;9.68;5.32;;;-7.90;94.80;;;;;;4378157;32;20074;-61
2022/03/12 10:37:33;;;;;;;8.25;5.85;;;-7.70;95.60;;;;;;4391914;32;20066;-61
2022/03/12 10:40:09;;;;;;;8.85;5.45;;;-7.50;95.80;;;;;;4390972;32;20073;-62
2022/03/12 10:42:50;;;;;;;6.80;4.78;;;-7.80;94.80;;;;;;4391998;32;20156;-62
2022/03/12 10:45:22;;;;;;;8.40;4.87;;;-7.70;93.60;;;;;;4393461;32;20156;-62
2022/03/12 10:47:54;;;;;;;8.65;4.85;;;-7.50;94.20;;;;;;4392700;32;20081;-64
2022/03/12 10:50:27;;;;;;;10.30;5.55;;;-7.30;93.90;;;;;;4390936;32;20081;-62
2022/03/12 10:52:57;;;;;;;9.05;5.47;;;-7.40;93.90;;;;;;4391169;32;20093;-62
2022/03/12 10:55:28;;;;;;;10.73;6.07;;;-7.10;94.20;;;;;;4377785;32;20154;-61
2022/03/12 10:58:23;;;;;;;9.30;6.07;;;-7.30;93.80;;;;;;4390065;32;20523;-61
2022/03/12 11:00:56;;;;;;;8.38;5.28;;;-7.50;94.40;;;;;;4391668;32;20451;-62
2022/03/12 11:03:27;;;;;;;12.95;5.80;;;-7.30;94.60;;;;;;4377811;32;20173;-61
2022/03/12 11:05:56;;;;;;;10.07;5.95;;;-7.40;94.40;;;;;;4390295;32;20169;-62
2022/03/12 11:08:34;;;;;;;8.88;5.60;;;-6.90;94.70;;;;;;4390461;32;20082;-62
2022/03/12 11:11:12;;;;;;;9.88;5.32;;;-7.00;94.60;;;;;;4378348;32;20153;-61
2022/03/12 11:13:46;;;;;;;8.65;5.10;;;-7.50;94.20;;;;;;4391224;32;20243;-62
2022/03/12 11:16:28;;;;;;;9.35;5.22;;;-7.20;94.50;;;;;;4392167;32;20079;-61
2022/03/12 11:19:06;;;;;;;;;;;;;;;;;;;;;
2022/03/12 11:21:47;;;;;;;11.27;5.85;;;-7.00;93.50;;;;;;3857414;37;20077;-61
2022/03/12 11:24:18;;;;;;;8.02;5.40;;;-7.30;93.10;;;;;;4406311;32;20573;-63
2022/03/12 11:26:50;;;;;;;10.13;5.65;;;-6.80;93.80;;;;;;4393969;32;20189;-62
2022/03/12 11:29:20;;;;;;;16.45;7.00;;;-7.10;92.80;;;;;;4420113;32;20080;-62
2022/03/12 11:32:04;;;;;;;11.48;6.95;;;-7.20;93.80;;;;;;4418141;32;20230;-63
2022/03/12 11:34:42;;;;;;;14.52;7.53;;;-7.00;93.10;;;;;;4418494;32;20069;-62
2022/03/12 11:37:14;;;;;;;12.43;6.15;;;-6.90;93.70;;;;;;4418563;32;20572;-61
2022/03/12 11:39:47;;;;;;;9.85;6.65;;;-6.70;92.60;;;;;;4418068;32;20462;-63
2022/03/12 11:42:20;;;;;;;11.43;7.47;;;-6.90;92.10;;;;;;4420212;32;20069;-64
2022/03/12 11:44:55;;;;;;;9.52;6.80;;;-7.10;92.80;;;;;;4405558;32;20496;-62
2022/03/12 11:47:25;;;;;;;9.75;5.95;;;-6.90;92.70;;;;;;4418011;32;20084;-61
2022/03/12 11:49:52;;;;;;;10.07;6.28;;;-6.70;92.40;;;;;;4418431;32;20085;-61
2022/03/12 11:52:20;;;;;;;9.68;6.45;;;-6.80;92.20;;;;;;4417910;32;20091;-63
2022/03/12 11:54:52;;;;;;;8.07;5.30;;;-6.80;92.10;;;;;;4418151;32;20088;-62
2022/03/12 11:57:31;;;;;;;9.75;5.82;;;-6.60;92.10;;;;;;4406116;32;20170;-62
2022/03/12 11:59:59;;;;;;;10.98;6.57;;;-6.90;92.20;;;;;;4418373;32;20145;-62
2022/03/12 12:02:35;;;;;;;9.40;6.47;;;-6.70;92.30;;;;;;4417515;32;20081;-62
2022/03/12 12:05:12;;;;;;;10.13;7.05;;;-6.70;92.10;;;;;;4404259;32;20460;-62
2022/03/12 12:07:41;;;;;;;9.07;6.47;;;-6.70;91.90;;;;;;4402998;32;20512;-62
2022/03/12 12:10:12;;;;;;;10.88;6.47;;;-6.40;91.40;;;;;;4402763;32;20116;-62
2022/03/12 12:12:38;;;;;;;9.95;6.25;;;-6.50;91.90;;;;;;4403493;32;20496;-62
2022/03/12 12:15:07;;;;;;;7.80;5.53;;;-6.60;91.90;;;;;;4402711;32;20077;-62
2022/03/12 12:17:33;;;;;;;10.18;6.70;;;-6.60;91.90;;;;;;4403986;32;20160;-62
2022/03/12 12:20:00;;;;;;;11.63;7.32;;;-6.60;91.30;;;;;;4390071;32;20093;-61
2022/03/12 12:22:27;;;;;;;9.63;5.90;;;-6.50;91.60;;;;;;4402618;32;20550;-64
2022/03/12 12:24:56;;;;;;;8.52;5.40;;;-6.60;91.10;;;;;;4404069;32;20117;-60
2022/03/12 12:27:23;;;;;;;10.00;5.70;;;-6.70;91.40;;;;;;4402791;32;20217;-62
2022/03/12 12:29:54;;;;;;;10.57;6.12;;;-6.50;91.20;;;;;;4389839;32;20088;-63
2022/03/12 12:32:26;;;;;;;12.48;6.60;;;-6.50;91.60;;;;;;4369819;32;20134;-61
2022/03/12 12:35:04;;;;;;;9.35;5.45;;;-6.20;91.30;;;;;;4393420;32;20076;-61
2022/03/12 12:37:58;;;;;;;10.55;6.50;;;-6.40;91.30;;;;;;4392426;32;20093;-61
2022/03/12 12:40:27;;;;;;;10.70;6.40;;;-6.40;90.90;;;;;;4392865;32;20187;-61
2022/03/12 12:42:57;;;;;;;9.57;5.87;;;-6.60;91.00;;;;;;4380213;32;20164;-62
2022/03/12 12:45:29;;;;;;;10.80;6.70;;;-6.70;90.90;;;;;;4393799;32;20145;-63
2022/03/12 12:48:08;;;;;;;10.80;6.37;;;-6.60;91.20;;;;;;4394253;32;20162;-61
2022/03/12 12:50:35;;;;;;;15.40;9.70;;;-6.70;91.00;;;;;;4392048;32;20519;-61